Time;durP1;ratioP1;P1;durP2;ratioP2;P2;SDS_P1;SDS_P2;PMS_P1;PMS_P2;Temp;Humidity;BMP_temperature;BMP_pressure;BME280_temperature;BME280_humidity;BME280_pressure;Samples;Min_cycle;Max_cycle;Signal;HPM_P1;HPM_P2
2023/02/05 00:01:34;;;;;;;31.73;13.10;;;;;;;7.61;100.00;103711.56;5018138;28;20372;-45
2023/02/05 00:03:59;;;;;;;31.02;12.98;;;;;;;7.60;100.00;103709.81;5014352;28;20038;-43
2023/02/05 00:06:25;;;;;;;30.77;12.48;;;;;;;7.60;100.00;103708.97;5010486;28;20083;-44
2023/02/05 00:08:51;;;;;;;30.98;14.00;;;;;;;7.58;100.00;103701.03;5027043;28;20028;-43
2023/02/05 00:11:16;;;;;;;31.30;12.45;;;;;;;7.59;100.00;103696.53;5010286;28;20022;-43
2023/02/05 00:13:42;;;;;;;31.90;11.52;;;;;;;7.59;100.00;103708.09;5025421;28;20037;-43
2023/02/05 00:16:19;;;;;;;29.02;12.27;;;;;;;7.56;100.00;103692.22;5031557;28;20049;-43
2023/02/05 00:18:45;;;;;;;27.27;10.30;;;;;;;7.53;100.00;103697.75;5031922;28;20057;-43
2023/02/05 00:21:11;;;;;;;20.85;9.07;;;;;;;7.53;100.00;103713.84;5030709;28;20638;-43
2023/02/05 00:23:37;;;;;;;15.93;7.35;;;;;;;7.53;100.00;103715.63;5017430;28;20044;-42
2023/02/05 00:26:04;;;;;;;12.15;5.75;;;;;;;7.52;100.00;103711.25;5011447;28;20055;-43
2023/02/05 00:28:34;;;;;;;12.07;4.65;;;;;;;7.49;100.00;103704.25;5011859;28;20140;-43
2023/02/05 00:31:00;;;;;;;11.18;4.50;;;;;;;7.48;100.00;103703.41;5013193;28;20436;-43
2023/02/05 00:33:26;;;;;;;13.00;4.95;;;;;;;7.47;100.00;103688.25;5024537;28;20168;-42
2023/02/05 00:35:51;;;;;;;10.15;4.00;;;;;;;7.47;100.00;103688.25;5030720;28;20029;-42
2023/02/05 00:38:16;;;;;;;18.75;4.32;;;;;;;7.48;100.00;103681.09;5030616;28;20053;-42
2023/02/05 00:40:42;;;;;;;11.45;3.75;;;;;;;7.52;100.00;103681.75;5030318;28;20416;-43
2023/02/05 00:43:08;;;;;;;13.95;3.58;;;;;;;7.53;100.00;103681.69;5025088;28;20120;-43
2023/02/05 00:45:36;;;;;;;15.52;3.13;;;;;;;7.53;100.00;103684.38;5011383;28;20057;-42
2023/02/05 00:48:01;;;;;;;;;;;;;;;7.56;100.00;103678.81;5011682;28;20037;-42
2023/02/05 00:50:27;;;;;;;11.25;2.85;;;;;;;7.56;100.00;103680.63;5011231;28;19918;-44
2023/02/05 00:52:53;;;;;;;11.88;2.83;;;;;;;7.55;100.00;103685.13;5020145;28;20541;-43
2023/02/05 00:55:18;;;;;;;8.68;2.70;;;;;;;7.54;100.00;103678.03;5030991;28;20028;-44
2023/02/05 00:57:43;;;;;;;11.75;3.13;;;;;;;7.54;100.00;103670.00;5030201;28;20547;-43
2023/02/05 01:00:09;;;;;;;8.82;2.70;;;;;;;7.53;100.00;103692.41;5030145;28;20366;-44
2023/02/05 01:02:34;;;;;;;7.78;2.72;;;;;;;7.53;100.00;103680.78;5025124;28;20037;-43
2023/02/05 01:05:00;;;;;;;7.70;2.40;;;;;;;7.50;100.00;103681.84;5010879;28;20101;-44
2023/02/05 01:07:25;;;;;;;7.80;3.00;;;;;;;7.51;100.00;103680.91;5010938;28;20319;-43
2023/02/05 01:09:50;;;;;;;11.75;2.20;;;;;;;7.47;100.00;103669.50;5021382;28;20484;-43
2023/02/05 01:12:16;;;;;;;8.00;1.85;;;;;;;7.46;100.00;103661.56;5028969;28;20477;-43
2023/02/05 01:14:41;;;;;;;9.32;2.20;;;;;;;7.48;100.00;103662.34;5023579;28;20128;-42
2023/02/05 01:17:07;;;;;;;8.23;1.80;;;;;;;7.46;100.00;103667.78;5010668;28;20084;-42
2023/02/05 01:19:33;;;;;;;9.43;1.85;;;;;;;7.51;100.00;103677.38;5017344;28;20029;-43
2023/02/05 01:21:59;;;;;;;11.63;1.90;;;;;;;7.48;100.00;103675.75;5029430;28;20037;-42
2023/02/05 01:24:24;;;;;;;6.07;1.90;;;;;;;7.48;100.00;103673.06;5029771;28;20029;-42
2023/02/05 01:26:50;;;;;;;9.40;1.98;;;;;;;7.46;100.00;103688.34;5030267;28;20029;-42
2023/02/05 01:29:15;;;;;;;7.43;1.90;;;;;;;7.45;100.00;103682.16;5029342;28;20057;-43
2023/02/05 01:31:41;;;;;;;7.75;1.73;;;;;;;7.46;100.00;103680.31;5029612;28;20037;-42
2023/02/05 01:34:06;;;;;;;3.53;1.58;;;;;;;7.46;100.00;103686.53;5014292;28;20022;-42
2023/02/05 01:36:31;;;;;;;8.68;1.50;;;;;;;7.46;100.00;103685.69;5010546;28;20473;-43
2023/02/05 01:38:57;;;;;;;11.80;1.63;;;;;;;7.44;100.00;103679.53;5020498;28;20029;-43
2023/02/05 01:41:22;;;;;;;9.68;2.08;;;;;;;7.43;100.00;103685.88;5017519;28;20040;-42
2023/02/05 01:44:23;;;;;;;13.48;2.00;;;;;;;7.44;100.00;103676.88;5023321;28;20085;-43
2023/02/05 01:46:50;;;;;;;8.05;1.75;;;;;;;7.44;100.00;103668.81;5007931;28;20057;-43
2023/02/05 01:49:34;;;;;;;9.50;2.00;;;;;;;7.43;100.00;103656.41;5025069;28;20038;-43
2023/02/05 01:52:02;;;;;;;7.38;1.88;;;;;;;7.39;100.00;103653.00;5027723;28;20025;-43
2023/02/05 01:54:29;;;;;;;7.38;1.88;;;;;;;7.39;100.00;103654.84;5011137;28;20030;-43
2023/02/05 01:57:02;;;;;;;11.35;1.85;;;;;;;7.36;100.00;103660.38;5010096;28;20028;-43
2023/02/05 01:59:30;;;;;;;15.82;2.22;;;;;;;7.36;100.00;103657.72;5008739;28;20037;-42
2023/02/05 02:01:58;;;;;;;6.90;1.88;;;;;;;7.36;100.00;103647.00;5026211;28;20060;-43
2023/02/05 02:04:38;;;;;;;9.55;1.77;;;;;;;7.34;100.00;103646.22;5029257;28;20456;-42
2023/02/05 02:07:04;;;;;;;8.43;2.67;;;;;;;7.35;100.00;103639.91;5029173;28;20519;-42
2023/02/05 02:09:30;;;;;;;13.82;3.60;;;;;;;7.33;100.00;103633.78;5026715;28;20029;-42
2023/02/05 02:11:56;;;;;;;8.93;1.90;;;;;;;7.32;100.00;103635.59;5028761;28;20048;-43
2023/02/05 02:14:22;;;;;;;11.05;2.08;;;;;;;7.31;100.00;103633.00;5011225;28;20030;-43
2023/02/05 02:16:49;;;;;;;8.43;2.20;;;;;;;7.30;100.00;103631.28;5008693;28;20037;-43
2023/02/05 02:19:25;;;;;;;12.32;2.47;;;;;;;7.30;100.00;103628.63;5012891;28;20108;-43
2023/02/05 02:22:08;;;;;;;15.38;2.95;;;;;;;7.29;100.00;103613.47;5016151;28;20110;-43
2023/02/05 02:25:11;;;;;;;11.45;2.42;;;;;;;7.31;100.00;103620.47;5009971;28;20377;-42
2023/02/05 02:27:56;;;;;;;12.50;2.65;;;;;;;7.30;100.00;103607.19;5010121;28;20445;-42
2023/02/05 02:30:23;;;;;;;15.27;2.25;;;;;;;7.30;100.00;103610.72;5019046;28;20061;-42
2023/02/05 02:32:53;;;;;;;9.85;2.80;;;;;;;7.28;100.00;103609.94;5023628;28;20504;-41
2023/02/05 02:35:26;;;;;;;11.75;2.60;;;;;;;7.27;100.00;103618.94;5013141;28;20084;-43
2023/02/05 02:38:00;;;;;;;12.88;2.58;;;;;;;7.33;100.00;103615.03;5029022;28;20116;-42
2023/02/05 02:40:38;;;;;;;9.73;2.90;;;;;;;7.30;100.00;103613.41;5026400;28;20033;-43
2023/02/05 02:43:09;;;;;;;14.00;3.60;;;;;;;7.33;100.00;103607.00;5030418;28;20021;-42
2023/02/05 02:45:36;;;;;;;13.00;3.10;;;;;;;7.32;100.00;103605.25;5032124;28;20041;-42
2023/02/05 02:48:03;;;;;;;12.50;3.33;;;;;;;7.31;100.00;103615.09;5032090;28;20029;-44
2023/02/05 02:50:33;;;;;;;19.65;4.65;;;;;;;7.33;100.00;103625.75;5032203;28;20464;-43
2023/02/05 02:53:05;;;;;;;18.70;3.85;;;;;;;7.31;100.00;103623.16;5030536;28;20029;-42
2023/02/05 02:55:35;;;;;;;17.98;3.80;;;;;;;7.33;100.00;103621.25;5031993;28;20507;-43
2023/02/05 02:58:02;;;;;;;18.25;3.83;;;;;;;7.33;100.00;103609.66;5031857;28;20392;-43
2023/02/05 03:00:28;;;;;;;18.30;3.92;;;;;;;7.34;100.00;103606.88;5009074;28;20021;-42
2023/02/05 03:02:59;;;;;;;19.80;4.55;;;;;;;7.36;100.00;103617.53;5033127;28;20029;-41
2023/02/05 03:05:25;;;;;;;22.25;4.78;;;;;;;7.35;100.00;103616.66;5033530;28;20040;-42
2023/02/05 03:07:54;;;;;;;15.75;4.60;;;;;;;7.37;100.00;103627.28;5031778;28;20025;-42
2023/02/05 03:10:42;;;;;;;12.95;4.63;;;;;;;7.41;100.00;103629.69;5026830;28;20033;-43
2023/02/05 03:13:11;;;;;;;24.88;5.28;;;;;;;7.38;100.00;103635.22;5033359;28;20030;-42
2023/02/05 03:15:41;;;;;;;28.58;5.07;;;;;;;7.38;100.00;103645.94;5031261;28;20037;-44
2023/02/05 03:18:06;;;;;;;14.20;4.85;;;;;;;7.37;100.00;103637.97;5032898;28;20041;-41
2023/02/05 03:20:36;;;;;;;19.52;4.90;;;;;;;7.33;100.00;103642.69;5030986;28;20025;-43
2023/02/05 03:23:02;;;;;;;23.55;5.68;;;;;;;7.30;100.00;103642.00;5026822;28;20026;-44
2023/02/05 03:25:29;;;;;;;27.45;5.75;;;;;;;7.27;100.00;103645.72;5012493;28;20125;-44
2023/02/05 03:27:55;;;;;;;24.85;6.07;;;;;;;7.25;100.00;103639.59;5015544;28;20040;-42
2023/02/05 03:30:24;;;;;;;23.63;5.50;;;;;;;7.21;100.00;103649.66;5023068;28;20029;-44
2023/02/05 03:32:54;;;;;;;21.23;7.43;;;;;;;7.19;100.00;103640.84;5029103;28;20057;-45
2023/02/05 03:35:38;;;;;;;22.25;6.90;;;;;;;7.17;100.00;103661.47;5027598;28;20050;-43
2023/02/05 03:38:22;;;;;;;20.88;6.65;;;;;;;7.12;100.00;103657.34;5027855;28;20038;-43
2023/02/05 03:40:51;;;;;;;28.75;7.18;;;;;;;7.06;100.00;103647.88;5030831;28;20017;-44
2023/02/05 03:43:24;;;;;;;20.98;7.85;;;;;;;7.02;100.00;103654.34;5020349;28;20042;-44
2023/02/05 03:46:03;;;;;;;20.60;7.60;;;;;;;7.00;100.00;103658.91;5011577;28;20034;-44
2023/02/05 03:48:50;;;;;;;24.20;8.05;;;;;;;6.99;100.00;103667.91;5027859;28;20051;-44
2023/02/05 03:51:33;;;;;;;16.25;7.82;;;;;;;6.99;100.00;103681.31;5023694;28;20029;-44
2023/02/05 03:54:07;;;;;;;22.15;8.80;;;;;;;6.97;100.00;103685.88;5016364;28;20073;-43
2023/02/05 03:56:43;;;;;;;24.85;8.80;;;;;;;6.98;100.00;103684.94;5020058;28;20040;-44
2023/02/05 03:59:09;;;;;;;19.77;9.05;;;;;;;6.96;100.00;103692.19;5029788;28;20039;-44
2023/02/05 04:01:35;;;;;;;20.92;9.02;;;;;;;6.96;100.00;103693.06;5017565;28;20500;-43
2023/02/05 04:04:00;;;;;;;23.48;9.10;;;;;;;6.95;100.00;103696.69;5028862;28;20025;-44
2023/02/05 04:06:25;;;;;;;26.58;9.68;;;;;;;6.97;100.00;103704.63;5012075;28;20026;-46
2023/02/05 04:08:51;;;;;;;19.88;8.77;;;;;;;6.94;100.00;103713.69;5016329;28;20041;-45
2023/02/05 04:11:16;;;;;;;22.85;8.02;;;;;;;6.94;100.00;103713.69;5020636;28;20034;-44
2023/02/05 04:13:41;;;;;;;16.65;6.95;;;;;;;6.88;100.00;103722.06;5012531;28;20065;-46
2023/02/05 04:16:07;;;;;;;17.42;6.90;;;;;;;6.89;100.00;103715.75;5012880;28;20401;-45
2023/02/05 04:18:32;;;;;;;12.80;5.38;;;;;;;6.87;100.00;103716.81;5014067;28;20029;-47
2023/02/05 04:20:58;;;;;;;16.67;4.65;;;;;;;6.86;100.00;103723.13;5033273;28;20104;-45
2023/02/05 04:23:24;;;;;;;12.70;3.33;;;;;;;6.79;100.00;103728.81;5031203;28;20031;-44
2023/02/05 04:25:53;;;;;;;17.35;2.78;;;;;;;6.77;100.00;103722.69;5031076;28;20467;-45
2023/02/05 04:28:19;;;;;;;22.13;2.90;;;;;;;6.72;100.00;103724.75;5029334;28;20084;-43
2023/02/05 04:30:44;;;;;;;12.35;1.85;;;;;;;6.64;100.00;103721.66;5023852;28;20053;-42
2023/02/05 04:33:09;;;;;;;23.33;2.83;;;;;;;6.66;100.00;103733.13;5011534;28;20073;-43
2023/02/05 04:35:35;;;;;;;23.70;1.83;;;;;;;6.62;100.00;103726.22;5011186;28;20030;-42
2023/02/05 04:38:00;;;;;;;18.70;2.42;;;;;;;6.60;100.00;103733.47;5011009;28;20071;-43
2023/02/05 04:40:25;;;;;;;14.95;1.52;;;;;;;6.60;100.00;103736.13;5023706;28;20518;-43
2023/02/05 04:42:51;;;;;;;26.90;2.30;;;;;;;6.57;100.00;103739.84;5011296;28;20520;-42
2023/02/05 04:45:16;;;;;;;22.50;2.53;;;;;;;6.51;100.00;103750.03;5011274;28;20052;-43
2023/02/05 04:47:41;;;;;;;29.88;2.05;;;;;;;6.53;100.00;103753.47;5011276;28;20049;-42
2023/02/05 04:50:07;;;;;;;25.00;1.67;;;;;;;6.51;100.00;103755.38;5025059;28;20736;-44
2023/02/05 04:52:32;;;;;;;29.63;2.15;;;;;;;6.48;100.00;103763.59;5011859;28;20026;-41
2023/02/05 04:54:57;;;;;;;24.40;2.88;;;;;;;6.38;100.00;103763.22;5011112;28;20033;-41
2023/02/05 04:57:23;;;;;;;40.13;2.85;;;;;;;6.41;100.00;103764.84;5024079;28;20052;-41
2023/02/05 04:59:48;;;;;;;24.50;1.98;;;;;;;6.34;100.00;103770.50;5017658;28;20041;-42
2023/02/05 05:02:14;;;;;;;27.15;2.40;;;;;;;6.34;100.00;103775.88;5012620;28;20022;-43
2023/02/05 05:04:39;;;;;;;21.05;2.85;;;;;;;6.32;100.00;103767.09;5018527;28;20048;-43
2023/02/05 05:07:04;;;;;;;24.40;2.33;;;;;;;6.28;100.00;103776.19;5029998;28;20083;-43
2023/02/05 05:09:30;;;;;;;33.20;2.33;;;;;;;6.24;100.00;103771.97;5029871;28;20121;-43
2023/02/05 05:11:55;;;;;;;25.80;2.50;;;;;;;6.22;100.00;103776.53;5029068;28;20081;-43
2023/02/05 05:14:21;;;;;;;32.45;2.45;;;;;;;6.21;100.00;103788.16;5030564;28;20029;-43
2023/02/05 05:16:48;;;;;;;32.75;2.50;;;;;;;6.19;100.00;103789.19;5030388;28;20033;-44
2023/02/05 05:19:13;;;;;;;25.63;2.83;;;;;;;6.16;100.00;103787.53;5018961;28;20021;-43
2023/02/05 05:21:39;;;;;;;28.17;2.67;;;;;;;6.20;100.00;103789.13;5029324;28;20026;-43
2023/02/05 05:24:04;;;;;;;23.52;2.45;;;;;;;6.12;100.00;103786.84;5026105;28;20109;-43
2023/02/05 05:26:30;;;;;;;20.98;2.63;;;;;;;5.99;100.00;103785.75;5011703;28;20400;-43
2023/02/05 05:28:56;;;;;;;26.58;2.30;;;;;;;5.99;100.00;103784.91;5023741;28;20022;-42
2023/02/05 05:31:22;;;;;;;25.88;2.13;;;;;;;5.91;100.00;103783.44;5021660;28;20508;-42
2023/02/05 05:33:48;;;;;;;14.10;2.45;;;;;;;5.90;100.00;103795.09;5011983;28;20045;-43
2023/02/05 05:36:13;;;;;;;23.02;2.42;;;;;;;5.82;100.00;103797.31;5027185;28;20572;-44
2023/02/05 05:38:39;;;;;;;25.48;3.15;;;;;;;5.80;100.00;103799.19;5023554;28;20452;-43
2023/02/05 05:43:50;;;;;;;17.17;1.77;;;;;;;5.87;100.00;103803.28;5010930;28;20133;-43
2023/02/05 05:46:20;;;;;;;18.05;1.75;;;;;;;5.88;100.00;103794.31;5013971;28;20022;-43
2023/02/05 05:48:49;;;;;;;27.15;3.15;;;;;;;5.92;100.00;103800.34;5026172;28;20037;-43
2023/02/05 05:51:15;;;;;;;28.67;2.53;;;;;;;5.90;100.00;103784.41;5011135;28;20131;-44
2023/02/05 05:53:40;;;;;;;22.73;1.77;;;;;;;6.01;100.00;103785.69;5009392;28;20072;-43
2023/02/05 05:56:05;;;;;;;26.02;2.20;;;;;;;6.03;100.00;103797.16;5008200;28;20113;-43
2023/02/05 05:58:31;;;;;;;29.17;4.97;;;;;;;6.00;100.00;103802.66;5025687;28;20021;-43
2023/02/05 06:00:56;;;;;;;22.50;3.13;;;;;;;6.01;100.00;103801.75;5027122;28;20030;-43
2023/02/05 06:03:22;;;;;;;31.00;2.80;;;;;;;6.01;100.00;103809.75;5022905;28;20065;-43
2023/02/05 06:05:48;;;;;;;26.30;1.60;;;;;;;5.99;100.00;103801.81;5009025;28;20523;-42
2023/02/05 06:08:15;;;;;;;31.55;3.20;;;;;;;5.98;100.00;103793.84;5010854;28;20034;-43
2023/02/05 06:10:40;;;;;;;30.90;2.72;;;;;;;5.98;100.00;103797.41;5024527;28;20094;-43
2023/02/05 06:13:06;;;;;;;29.52;2.60;;;;;;;6.04;100.00;103805.09;5012647;28;20064;-43
2023/02/05 06:15:31;;;;;;;26.85;2.00;;;;;;;6.08;100.00;103808.47;5031301;28;20034;-43
2023/02/05 06:17:56;;;;;;;33.03;2.92;;;;;;;6.09;100.00;103810.22;5024933;28;20022;-44
2023/02/05 06:20:22;;;;;;;29.67;2.75;;;;;;;6.10;100.00;103814.63;5031261;28;20454;-43
2023/02/05 06:22:47;;;;;;;21.67;2.53;;;;;;;6.10;100.00;103819.97;5030060;28;20520;-43
2023/02/05 06:25:14;;;;;;;35.72;2.83;;;;;;;6.00;100.00;103822.22;5031299;28;20021;-43
2023/02/05 06:27:39;;;;;;;44.58;3.75;;;;;;;6.04;100.00;103826.50;5031924;28;20497;-43
2023/02/05 06:30:05;;;;;;;34.22;3.33;;;;;;;6.04;100.00;103833.66;5028708;28;20072;-44
2023/02/05 06:32:30;;;;;;;30.67;2.70;;;;;;;6.13;100.00;103830.50;5016478;28;20061;-44
2023/02/05 06:34:56;;;;;;;27.30;2.45;;;;;;;6.07;100.00;103838.84;5026171;28;20061;-43
2023/02/05 06:37:24;;;;;;;34.08;3.08;;;;;;;6.12;100.00;103847.50;5030618;28;20461;-42
2023/02/05 06:39:50;;;;;;;25.60;3.47;;;;;;;6.14;100.00;103858.97;5017444;28;20425;-42
2023/02/05 06:42:15;;;;;;;32.40;2.75;;;;;;;6.07;100.00;103869.09;5011743;28;20034;-43
2023/02/05 06:44:40;;;;;;;33.22;3.95;;;;;;;6.06;100.00;103872.75;5017824;28;20425;-43
2023/02/05 06:47:06;;;;;;;28.38;3.35;;;;;;;6.08;100.00;103872.66;5030057;28;20099;-43
2023/02/05 06:49:31;;;;;;;27.33;2.50;;;;;;;5.97;100.00;103878.53;5031133;28;20447;-43
2023/02/05 06:51:56;;;;;;;30.90;2.90;;;;;;;5.98;100.00;103884.75;5023290;28;20500;-44
2023/02/05 06:54:23;;;;;;;33.88;3.03;;;;;;;5.93;100.00;103891.19;5026757;28;20389;-44
2023/02/05 06:56:48;;;;;;;35.33;3.13;;;;;;;5.94;100.00;103884.03;5024055;28;20048;-43
2023/02/05 06:59:14;;;;;;;30.83;2.92;;;;;;;5.90;100.00;103888.66;5024754;28;20404;-44
2023/02/05 07:01:39;;;;;;;34.38;3.38;;;;;;;5.95;100.00;103888.47;5017960;28;20113;-45
2023/02/05 07:04:04;;;;;;;41.75;3.58;;;;;;;6.00;100.00;103905.13;5019386;28;20069;-44
2023/02/05 07:06:30;;;;;;;37.58;3.58;;;;;;;5.97;100.00;103915.97;5020278;28;20029;-43
2023/02/05 07:08:55;;;;;;;31.60;3.17;;;;;;;5.92;100.00;103918.84;5018627;28;20328;-42
2023/02/05 07:11:22;;;;;;;32.63;3.72;;;;;;;5.96;100.00;103916.91;5018391;28;20049;-42
2023/02/05 07:13:47;;;;;;;43.03;3.47;;;;;;;6.00;100.00;103920.28;5022058;28;20034;-43
2023/02/05 07:16:13;;;;;;;41.90;3.28;;;;;;;6.06;100.00;103936.06;5018003;28;20030;-43
2023/02/05 07:18:38;;;;;;;40.97;2.97;;;;;;;6.16;100.00;103948.00;5021391;28;20116;-43
2023/02/05 07:21:05;;;;;;;32.45;2.63;;;;;;;6.11;100.00;103956.28;5017381;28;20392;-42
2023/02/05 07:23:30;;;;;;;26.80;2.67;;;;;;;6.09;100.00;103951.94;5018421;28;20030;-42
2023/02/05 07:25:56;;;;;;;27.40;3.92;;;;;;;5.99;100.00;103972.03;5018402;28;20326;-43
2023/02/05 07:28:21;;;;;;;29.00;2.67;;;;;;;5.98;100.00;103976.53;5021138;28;20120;-42
2023/02/05 07:30:48;;;;;;;32.90;2.88;;;;;;;5.89;100.00;103975.13;5016519;28;20057;-42
2023/02/05 07:33:14;;;;;;;36.03;2.80;;;;;;;5.96;100.00;103993.59;5022025;28;20053;-42
2023/02/05 07:35:39;;;;;;;24.25;2.47;;;;;;;5.93;100.00;103998.13;5038642;28;20043;-45
2023/02/05 07:38:05;;;;;;;32.13;3.13;;;;;;;5.89;100.00;104001.84;5024416;28;20358;-42
2023/02/05 07:40:30;;;;;;;42.38;3.58;;;;;;;5.90;100.00;104008.94;5012157;28;20060;-43
2023/02/05 07:42:56;;;;;;;25.30;2.70;;;;;;;5.96;100.00;104006.97;5012646;28;20183;-43
2023/02/05 07:45:21;;;;;;;33.22;3.13;;;;;;;6.03;100.00;103998.56;5012646;28;20061;-44
2023/02/05 07:47:48;;;;;;;39.15;5.18;;;;;;;6.08;100.00;104001.88;5023151;28;20030;-44
2023/02/05 07:50:15;;;;;;;42.35;3.35;;;;;;;6.08;100.00;103992.97;5010948;28;20477;-45
2023/02/05 07:52:40;;;;;;;36.97;3.45;;;;;;;6.16;100.00;103996.13;5009524;28;20047;-43
2023/02/05 07:55:05;;;;;;;36.35;4.03;;;;;;;6.17;100.00;103997.03;5009337;28;20546;-43
2023/02/05 07:57:31;;;;;;;41.70;4.07;;;;;;;6.32;100.00;103990.91;5014514;28;20476;-43
2023/02/05 07:59:56;;;;;;;36.08;3.45;;;;;;;6.39;100.00;103986.97;5010428;28;20026;-43
2023/02/05 08:02:21;;;;;;;34.40;3.55;;;;;;;6.50;100.00;103983.75;5009331;28;20033;-44
2023/02/05 08:04:47;;;;;;;36.65;3.63;;;;;;;6.55;100.00;103987.06;5011306;28;20033;-44
2023/02/05 08:07:12;;;;;;;43.45;4.13;;;;;;;6.66;100.00;103987.41;5010350;28;20033;-43
2023/02/05 08:09:38;;;;;;;52.03;4.72;;;;;;;6.71;100.00;103987.13;5022244;28;20542;-44
2023/02/05 08:12:05;;;;;;;45.38;5.95;;;;;;;6.80;100.00;103978.63;5025977;28;20113;-43
2023/02/05 08:14:31;;;;;;;40.72;4.65;;;;;;;6.82;100.00;103988.31;5016747;28;20037;-44
2023/02/05 08:16:57;;;;;;;52.53;5.13;;;;;;;6.95;100.00;103990.34;5012872;28;20025;-44
2023/02/05 08:19:23;;;;;;;44.85;5.13;;;;;;;7.26;100.00;104006.50;5010477;28;20029;-44
2023/02/05 08:21:49;;;;;;;49.05;4.88;;;;;;;7.67;100.00;103989.97;5010469;28;20033;-44
2023/02/05 08:24:14;;;;;;;38.55;4.63;;;;;;;8.07;100.00;103987.72;5016999;28;20025;-42
2023/02/05 08:26:40;;;;;;;43.15;4.78;;;;;;;8.11;100.00;103980.38;5014307;28;20060;-44
2023/02/05 08:29:07;;;;;;;51.17;5.10;;;;;;;8.20;100.00;103981.66;5010612;28;20030;-44
2023/02/05 08:31:34;;;;;;;53.13;5.47;;;;;;;8.23;100.00;104002.94;5029765;28;20085;-42
2023/02/05 08:33:59;;;;;;;51.90;6.07;;;;;;;8.12;100.00;103995.50;5027845;28;20036;-44
2023/02/05 08:36:25;;;;;;;35.60;3.58;;;;;;;8.01;100.00;103998.81;5029143;28;20022;-43
2023/02/05 08:38:50;;;;;;;48.47;5.47;;;;;;;7.75;100.00;104002.97;5026559;28;20041;-43
2023/02/05 08:41:16;;;;;;;37.28;4.97;;;;;;;7.76;100.00;104004.69;5023811;28;20516;-43
2023/02/05 08:43:47;;;;;;;59.67;5.03;;;;;;;7.81;100.00;104018.69;5018473;28;20034;-43
2023/02/05 08:46:15;;;;;;;45.90;4.38;;;;;;;7.91;100.00;104013.69;5030008;28;20025;-42
2023/02/05 08:48:40;;;;;;;56.75;5.32;;;;;;;7.97;100.00;104023.19;5024435;28;20473;-43
2023/02/05 08:51:08;;;;;;;38.90;4.72;;;;;;;7.95;100.00;104028.63;5018945;28;20071;-43
2023/02/05 08:53:34;;;;;;;39.85;4.88;;;;;;;7.79;100.00;104041.19;5026487;28;20360;-44
2023/02/05 08:56:01;;;;;;;42.45;4.45;;;;;;;7.58;100.00;104038.75;5025571;28;20029;-44
2023/02/05 08:58:26;;;;;;;54.92;5.22;;;;;;;7.45;100.00;104048.38;5023021;28;20022;-44
2023/02/05 09:00:52;;;;;;;43.78;4.30;;;;;;;7.38;100.00;104049.69;5018867;28;20163;-42
2023/02/05 09:03:18;;;;;;;47.92;4.30;;;;;;;7.32;100.00;104063.38;5042364;28;20501;-43
2023/02/05 09:05:44;;;;;;;50.75;5.00;;;;;;;7.31;100.00;104059.00;5018345;28;20065;-44
2023/02/05 09:08:09;;;;;;;59.28;4.57;;;;;;;7.39;100.00;104044.22;5039855;28;20044;-44
2023/02/05 09:10:34;;;;;;;63.80;5.85;;;;;;;7.42;100.00;104043.19;5023001;28;20021;-43
2023/02/05 09:13:00;;;;;;;45.88;5.38;;;;;;;7.66;100.00;104044.56;5024998;28;20473;-44
2023/02/05 09:15:25;;;;;;;56.85;5.13;;;;;;;7.66;100.00;104052.59;5028591;28;20033;-43
2023/02/05 09:17:50;;;;;;;56.58;5.28;;;;;;;7.63;100.00;104060.78;5020022;28;20017;-42
2023/02/05 09:20:16;;;;;;;54.40;5.07;;;;;;;7.57;100.00;104028.97;5024890;28;20025;-43
2023/02/05 09:22:41;;;;;;;57.75;6.40;;;;;;;7.58;100.00;104038.75;5017823;28;20052;-43
2023/02/05 09:25:07;;;;;;;54.65;5.40;;;;;;;7.65;100.00;104032.09;5011254;28;20026;-42
2023/02/05 09:27:33;;;;;;;54.63;4.60;;;;;;;7.72;100.00;104027.25;5019949;28;20033;-43
2023/02/05 09:29:58;;;;;;;56.78;5.95;;;;;;;7.72;100.00;104015.69;5030436;28;20033;-42
2023/02/05 09:32:23;;;;;;;50.05;5.40;;;;;;;7.78;100.00;104023.38;5028680;28;20069;-42
2023/02/05 09:34:49;;;;;;;64.45;6.72;;;;;;;7.85;100.00;104024.78;5018818;28;20037;-43
2023/02/05 09:37:15;;;;;;;64.43;7.18;;;;;;;7.81;100.00;104036.59;5014012;28;20496;-43
2023/02/05 09:39:41;;;;;;;55.78;5.63;;;;;;;7.74;100.00;104030.75;5024673;28;20033;-44
2023/02/05 09:42:18;;;;;;;43.92;4.82;;;;;;;7.61;100.00;104010.88;5020585;28;20075;-44
2023/02/05 09:45:41;;;;;;;50.20;4.78;;;;;;;7.67;100.00;104005.22;5020209;28;20038;-44
2023/02/05 09:48:48;;;;;;;43.50;4.97;;;;;;;7.62;100.00;104040.31;4963233;28;20038;-43
2023/02/05 09:51:15;;;;;;;61.50;6.38;;;;;;;7.64;100.00;104043.78;4968965;28;20042;-45
2023/02/05 09:53:44;;;;;;;63.38;5.93;;;;;;;7.69;100.00;104047.06;5007383;28;20045;-43
2023/02/05 09:56:11;;;;;;;57.97;5.85;;;;;;;7.72;100.00;104029.94;5020981;28;20036;-43
2023/02/05 09:58:41;;;;;;;57.93;5.73;;;;;;;7.83;100.00;104043.63;5034023;28;20414;-44
2023/02/05 10:01:15;;;;;;;59.78;6.95;;;;;;;7.81;100.00;104058.06;5009664;28;20436;-42
2023/02/05 10:03:54;;;;;;;50.13;5.80;;;;;;;7.93;100.00;104051.16;5013883;28;20168;-43
2023/02/05 10:06:41;;;;;;;46.90;4.47;;;;;;;7.89;100.00;104058.50;5023225;28;20493;-45
2023/02/05 10:09:11;;;;;;;43.92;6.18;;;;;;;7.83;100.00;104048.97;5023289;28;20029;-44
2023/02/05 10:11:48;;;;;;;59.67;4.50;;;;;;;7.70;100.00;104053.28;5021348;28;20044;-44
2023/02/05 10:14:40;;;;;;;53.72;5.63;;;;;;;7.68;100.00;104048.00;5020440;28;20029;-43
2023/02/05 10:17:23;;;;;;;49.45;5.05;;;;;;;7.80;100.00;104048.28;5020971;28;20103;-44
2023/02/05 10:19:54;;;;;;;54.35;5.03;;;;;;;7.87;100.00;104036.25;5012795;28;20072;-45
2023/02/05 10:22:27;;;;;;;52.60;5.25;;;;;;;8.04;100.00;104036.19;5017412;28;20099;-44
2023/02/05 10:25:21;;;;;;;49.45;5.13;;;;;;;8.23;100.00;104032.44;5017716;28;20072;-44
2023/02/05 10:28:28;;;;;;;49.45;4.85;;;;;;;8.55;100.00;104035.97;5009789;28;20056;-44
2023/02/05 10:31:30;;;;;;;64.25;5.85;;;;;;;8.60;100.00;104043.75;5007275;28;20037;-43
2023/02/05 10:34:13;;;;;;;38.22;4.15;;;;;;;8.49;100.00;104047.94;5010611;28;20045;-44
2023/02/05 10:36:38;;;;;;;41.65;5.40;;;;;;;8.62;100.00;104063.34;5016243;28;20041;-42
2023/02/05 10:39:12;;;;;;;50.42;4.95;;;;;;;8.69;100.00;104065.56;5026695;28;20030;-43
2023/02/05 10:42:00;;;;;;;65.15;6.00;;;;;;;8.81;100.00;104063.97;5027668;28;20060;-42
2023/02/05 10:44:32;;;;;;;54.60;6.03;;;;;;;9.42;100.00;104060.22;5027505;28;20080;-43
2023/02/05 10:47:09;;;;;;;66.00;6.00;;;;;;;10.02;100.00;104059.13;5026321;28;20037;-43
2023/02/05 10:49:49;;;;;;;51.47;5.32;;;;;;;10.57;100.00;104035.78;5023075;28;20037;-43
2023/02/05 10:52:15;;;;;;;45.72;4.60;;;;;;;10.66;100.00;104040.53;5012956;28;20405;-42
2023/02/05 10:54:40;;;;;;;56.38;5.25;;;;;;;10.60;100.00;104032.88;5028800;28;20041;-42
2023/02/05 10:57:14;;;;;;;52.58;5.38;;;;;;;10.96;100.00;104034.91;5032398;28;20096;-44
2023/02/05 11:00:04;;;;;;;43.22;5.13;;;;;;;11.16;100.00;104036.22;5023541;28;20030;-43
2023/02/05 11:02:37;;;;;;;45.65;4.50;;;;;;;11.12;100.00;104045.47;5028339;28;20029;-43
2023/02/05 11:05:07;;;;;;;40.67;5.10;;;;;;;11.39;100.00;104037.25;5011806;28;20037;-45
2023/02/05 11:07:43;;;;;;;39.40;5.45;;;;;;;11.59;100.00;104049.34;5025243;28;20056;-44
2023/02/05 11:10:23;;;;;;;52.88;5.32;;;;;;;11.61;100.00;104055.50;5022731;28;20044;-43
2023/02/05 11:12:52;;;;;;;44.70;4.72;;;;;;;11.68;100.00;104055.03;5025083;28;20041;-43
2023/02/05 11:15:26;;;;;;;58.20;5.32;;;;;;;11.53;100.00;104041.69;5024033;28;20067;-43
2023/02/05 11:18:03;;;;;;;42.08;5.13;;;;;;;11.62;100.00;104035.63;5013133;28;20125;-44
2023/02/05 11:20:31;;;;;;;44.85;5.15;;;;;;;11.68;100.00;104033.47;5011317;28;20026;-43
2023/02/05 11:23:20;;;;;;;68.85;5.47;;;;;;;11.48;99.42;104024.09;5015572;28;20029;-43
2023/02/05 11:25:53;;;;;;;47.58;5.47;;;;;;;11.03;100.00;104013.75;5019486;28;20072;-43
2023/02/05 11:28:23;;;;;;;47.75;5.65;;;;;;;10.96;100.00;104017.88;5021318;28;20419;-43